createdAt,value
2018-12-30T17:43:21.130Z,104.97
2018-12-30T17:45:52.741Z,108.87
2018-12-30T17:48:26.502Z,112.47
2018-12-30T17:50:56.448Z,122.20
2018-12-30T17:53:41.940Z,130.40
2018-12-30T17:56:27.023Z,139.13
2018-12-30T17:58:56.715Z,144.93
2018-12-30T18:01:28.431Z,151.93
2018-12-30T18:03:57.333Z,156.13
2018-12-30T18:06:26.555Z,160.93
2018-12-30T18:09:16.511Z,159.10
2018-12-30T18:12:12.223Z,150.87
2018-12-30T18:14:32.116Z,154.07
2018-12-30T19:10:12.282Z,161.77
2018-12-30T19:12:43.335Z,161.00
2018-12-30T19:15:14.846Z,173.87
2018-12-30T19:17:49.593Z,162.70
2018-12-30T19:20:13.802Z,170.70
2018-12-30T19:23:00.551Z,158.90
2018-12-30T19:25:29.134Z,173.70
2018-12-30T19:27:58.431Z,192.37
2018-12-30T19:30:26.953Z,192.30
2018-12-30T19:32:56.331Z,173.07
2018-12-30T19:35:42.858Z,179.43
2018-12-30T19:38:11.463Z,188.13
2018-12-30T19:40:40.207Z,186.23
2018-12-30T19:43:09.060Z,158.43
2018-12-30T19:45:42.618Z,156.03
2018-12-30T19:48:10.692Z,175.53
2018-12-30T19:50:39.553Z,155.03
2018-12-30T19:53:08.508Z,152.47
2018-12-30T19:55:38.588Z,143.83
2018-12-30T19:58:09.863Z,131.20
2018-12-30T20:00:40.161Z,144.63
2018-12-30T20:03:27.585Z,166.23
2018-12-30T20:06:04.967Z,185.27
2018-12-30T20:08:39.893Z,192.87
2018-12-30T20:11:11.832Z,207.13
2018-12-30T20:13:46.692Z,185.80
2018-12-30T20:19:21.483Z,233.30
2018-12-30T20:37:47.315Z,191.30
2018-12-30T20:49:40.873Z,219.83
2018-12-30T20:52:13.087Z,234.93
2018-12-30T20:54:51.839Z,201.70
2018-12-30T21:23:05.305Z,219.50
2018-12-30T21:25:38.561Z,205.87
2018-12-30T21:28:07.156Z,205.73
2018-12-30T21:30:35.784Z,210.83
2018-12-30T21:33:14.141Z,218.30
2018-12-30T21:36:00.961Z,188.60
2018-12-30T21:38:47.780Z,193.43
2018-12-30T21:41:16.535Z,189.07
2018-12-30T21:43:50.614Z,181.17
2018-12-30T21:46:17.312Z,180.33
2018-12-30T21:48:51.905Z,186.70
2018-12-30T21:51:20.741Z,161.23
2018-12-30T21:53:51.020Z,175.47
2018-12-30T21:56:20.753Z,174.03
2018-12-30T21:58:51.193Z,160.20
2018-12-30T22:01:19.894Z,164.13
2018-12-30T22:03:48.759Z,137.67
2018-12-30T22:09:29.522Z,146.73
2018-12-30T22:12:02.172Z,146.37
2018-12-30T22:14:34.138Z,130.90
2018-12-30T22:17:02.903Z,138.40
2018-12-30T22:22:55.178Z,107.10
2018-12-30T22:25:23.914Z,114.83
2018-12-30T22:27:52.600Z,137.13
2018-12-30T22:30:30.203Z,126.00
2018-12-30T23:26:51.511Z,133.13
2018-12-30T23:35:44.200Z,174.13
2018-12-30T23:41:14.255Z,153.40
2018-12-30T23:43:46.351Z,155.37
2018-12-30T23:46:18.745Z,154.77
2018-12-30T23:49:07.017Z,162.00
